Main page
METAR-TAF:

METAR-TAF

Airports :

Gibraltar International Airport

Gibraltar, Gibraltar

latitude: 36-09N, longitude: 005-21W, elevation: 5 m

Current weather observation

The report was made 41 minutes ago, at 08:20 UTC
Wind 7 kt from the Northeast
Temperature 18°C
Humidity 88%
Pressure 1021 hPa
Visibility 10 km or more
Overcast at a height of 1300 ft

METAR: LXGB 180820Z 04007KT 9999 OVC013 18/16 Q1021 NOSIG RMK GRN GRN

Time: 11:01 (09:01 UTC)

Forecast

The report was made 1 hour and 12 minutes ago, at 07:49 UTC
Forecast valid from 18 at 09 UTC to 18 at 18 UTC
Wind 8 kt from the East/Northeast
Visibility 10 km or more
Broken clouds at a height of 1300 ft
Probability 30% :
Temporary
from 18 at 09 UTC to 18 at 13 UTC
Broken clouds at a height of 1500 ft
Becoming
from 18 at 10 UTC to 18 at 13 UTC
Few clouds at a height of 1400 ft

TAF: LXGB 180749Z 1809/1818 06008KT 9999 BKN013 PROB30 TEMPO 1809/1813 BKN015 BECMG 1810/1813 FEW014

Weather observations and forecasts of more than 4000 airports (METAR and TAF reports).

The available stations are represented by yellow and red dots on the map.

Hover mouse over dot to see the name of the station.

Then click to see weather observations and forecasts.

To change the map : click on the green buttons with a black cross to zoom in, on the green button with a dash to zoom out, or on the green arrows for adjacent maps.


METAR-TAF: